Time;durP1;ratioP1;P1;durP2;ratioP2;P2;SDS_P1;SDS_P2;PMS_P1;PMS_P2;Temp;Humidity;BMP_temperature;BMP_pressure;BME280_temperature;BME280_humidity;BME280_pressure;Samples;Min_cycle;Max_cycle;Signal;HPM_P1;HPM_P2
2023/06/05 00:01:19;;;;;;;6.30;4.87;;;13.80;99.90;;;;;;4984776;28;20216;-76
2023/06/05 00:03:46;;;;;;;6.47;5.20;;;13.80;99.90;;;;;;4996603;28;20292;-77
2023/06/05 00:06:13;;;;;;;8.10;5.43;;;13.70;99.90;;;;;;5004751;28;20621;-77
2023/06/05 00:08:39;;;;;;;5.97;5.03;;;13.70;99.90;;;;;;4971864;28;20881;-76
2023/06/05 00:11:06;;;;;;;5.83;4.73;;;13.60;99.90;;;;;;4990509;28;20242;-76
2023/06/05 00:13:34;;;;;;;6.97;5.40;;;13.60;99.90;;;;;;4997258;28;20198;-76
2023/06/05 00:16:02;;;;;;;6.03;4.90;;;13.50;99.90;;;;;;5007270;28;20205;-77
2023/06/05 00:18:29;;;;;;;6.87;5.07;;;13.50;99.90;;;;;;5008813;28;20610;-76
2023/06/05 00:20:56;;;;;;;8.40;5.57;;;13.40;99.90;;;;;;4987404;28;20197;-77
2023/06/05 00:23:23;;;;;;;6.47;4.87;;;13.40;99.90;;;;;;4994447;28;20205;-76
2023/06/05 00:25:50;;;;;;;5.77;4.70;;;13.40;99.90;;;;;;4995517;28;20197;-77
2023/06/05 00:28:17;;;;;;;6.37;4.67;;;13.40;99.90;;;;;;4977900;28;20300;-77
2023/06/05 00:30:45;;;;;;;7.00;4.73;;;13.40;99.90;;;;;;4994783;28;20293;-77
2023/06/05 00:33:12;;;;;;;6.90;4.97;;;13.30;99.90;;;;;;4981222;28;20194;-77
2023/06/05 00:35:40;;;;;;;7.17;5.47;;;13.30;99.90;;;;;;4995782;28;20197;-77
2023/06/05 00:38:07;;;;;;;8.43;5.80;;;13.20;99.90;;;;;;4979917;28;20692;-77
2023/06/05 00:40:33;;;;;;;7.77;5.73;;;13.20;99.90;;;;;;4976284;28;20221;-77
2023/06/05 00:43:00;;;;;;;6.70;5.43;;;13.10;99.90;;;;;;4978799;28;20275;-76
2023/06/05 00:45:28;;;;;;;6.20;5.53;;;13.00;99.90;;;;;;4989556;28;20592;-75
2023/06/05 00:47:56;;;;;;;7.77;5.50;;;13.00;99.90;;;;;;4976775;28;20241;-77
2023/06/05 00:50:24;;;;;;;7.73;6.07;;;12.90;99.90;;;;;;4976257;28;20233;-76
2023/06/05 00:52:52;;;;;;;7.70;5.80;;;12.90;99.90;;;;;;4979132;28;20193;-77
2023/06/05 00:55:20;;;;;;;7.00;5.70;;;12.90;99.90;;;;;;4973896;28;20203;-77
2023/06/05 00:57:47;;;;;;;7.37;5.43;;;12.90;99.90;;;;;;4978930;28;20607;-76
2023/06/05 01:00:15;;;;;;;7.93;5.60;;;12.90;99.90;;;;;;5001150;28;20232;-77
2023/06/05 01:02:42;;;;;;;7.33;5.40;;;12.80;99.90;;;;;;4999123;28;20201;-77
2023/06/05 01:05:11;;;;;;;7.87;5.63;;;12.80;99.90;;;;;;4971966;28;20641;-76
2023/06/05 01:07:39;;;;;;;7.73;5.30;;;12.80;99.90;;;;;;4977730;28;20657;-77
2023/06/05 01:10:09;;;;;;;7.17;5.20;;;12.70;99.90;;;;;;5001186;28;20217;-77
2023/06/05 01:12:42;;;;;;;7.37;5.70;;;12.70;99.90;;;;;;4980168;28;20198;-77
2023/06/05 01:15:09;;;;;;;7.67;5.37;;;12.60;99.90;;;;;;4980002;28;20212;-76
2023/06/05 01:17:37;;;;;;;8.87;6.00;;;12.50;99.90;;;;;;4996454;28;20612;-77
2023/06/05 01:20:08;;;;;;;7.83;5.97;;;12.60;99.90;;;;;;4996449;28;20221;-76
2023/06/05 01:22:37;;;;;;;9.20;6.43;;;12.50;99.90;;;;;;4977485;28;20202;-76
2023/06/05 01:25:07;;;;;;;7.97;5.97;;;12.50;99.90;;;;;;4968937;28;20205;-76
2023/06/05 01:27:42;;;;;;;6.90;5.13;;;12.50;99.90;;;;;;4971071;28;20217;-77
2023/06/05 01:30:16;;;;;;;7.40;5.77;;;12.40;99.90;;;;;;4995437;28;20219;-76
2023/06/05 01:32:53;;;;;;;7.43;6.03;;;12.40;99.90;;;;;;4988765;28;20197;-76
2023/06/05 01:35:27;;;;;;;7.90;5.97;;;12.40;99.90;;;;;;4983640;28;20640;-77
2023/06/05 01:37:56;;;;;;;7.67;5.87;;;12.40;99.90;;;;;;4987047;28;20569;-77
2023/06/05 01:40:25;;;;;;;7.60;6.27;;;12.30;99.90;;;;;;4970015;28;20357;-76
2023/06/05 01:42:55;;;;;;;7.17;5.97;;;12.30;99.90;;;;;;4974331;28;20676;-77
2023/06/05 01:45:22;;;;;;;8.40;5.77;;;12.30;99.90;;;;;;4976992;28;20197;-77
2023/06/05 01:47:50;;;;;;;8.27;6.00;;;12.30;99.90;;;;;;4977221;28;20263;-76
2023/06/05 01:50:18;;;;;;;7.50;5.60;;;12.20;99.90;;;;;;4978415;28;20761;-76
2023/06/05 01:52:46;;;;;;;7.33;5.70;;;12.20;99.90;;;;;;4963706;28;20228;-77
2023/06/05 01:55:16;;;;;;;7.67;5.87;;;12.20;99.90;;;;;;4962412;28;20606;-77
2023/06/05 01:57:45;;;;;;;7.20;5.47;;;12.10;99.90;;;;;;4978729;28;20208;-77
2023/06/05 02:00:15;;;;;;;8.43;5.97;;;12.10;99.90;;;;;;4977246;28;20217;-76
2023/06/05 02:02:42;;;;;;;8.80;5.77;;;12.10;99.90;;;;;;4994785;28;20211;-77
2023/06/05 02:05:09;;;;;;;9.30;6.33;;;12.00;99.90;;;;;;4978642;28;20209;-77
2023/06/05 02:07:40;;;;;;;7.17;5.43;;;11.90;99.90;;;;;;4984353;28;20236;-76
2023/06/05 02:10:09;;;;;;;7.30;5.50;;;11.90;99.90;;;;;;4996388;28;20257;-75
2023/06/05 02:12:37;;;;;;;7.30;5.63;;;11.90;99.90;;;;;;4977964;28;20735;-76
2023/06/05 02:15:06;;;;;;;7.73;5.80;;;11.90;99.90;;;;;;4982219;28;20297;-76
2023/06/05 02:17:34;;;;;;;7.37;5.53;;;11.80;99.90;;;;;;4994613;28;20270;-76
2023/06/05 02:20:01;;;;;;;7.93;6.10;;;11.90;99.90;;;;;;4990633;28;20300;-76
2023/06/05 02:22:28;;;;;;;6.80;5.10;;;11.90;99.90;;;;;;4975689;28;20198;-76
2023/06/05 02:24:54;;;;;;;7.03;5.57;;;11.90;99.90;;;;;;4991332;28;20228;-76
2023/06/05 02:27:24;;;;;;;6.90;5.40;;;11.90;99.90;;;;;;4995501;28;20260;-77
2023/06/05 02:29:51;;;;;;;6.80;5.77;;;11.90;99.90;;;;;;4966587;28;20320;-76
2023/06/05 02:32:19;;;;;;;7.53;5.63;;;11.90;99.90;;;;;;4998447;28;20193;-76
2023/06/05 02:34:47;;;;;;;6.40;5.57;;;11.80;99.90;;;;;;4973900;28;20673;-76
2023/06/05 02:37:15;;;;;;;6.63;5.40;;;11.80;99.90;;;;;;4976883;28;20220;-76
2023/06/05 02:39:42;;;;;;;7.90;5.60;;;11.80;99.90;;;;;;4999169;28;20703;-76
2023/06/05 02:42:09;;;;;;;7.27;5.63;;;11.70;99.90;;;;;;4977218;28;20208;-81
2023/06/05 02:44:36;;;;;;;6.87;5.57;;;11.70;99.90;;;;;;4983543;28;20204;-76
2023/06/05 02:47:03;;;;;;;7.97;5.57;;;11.60;99.90;;;;;;4969552;28;20224;-77
2023/06/05 02:49:32;;;;;;;8.80;5.67;;;11.60;99.90;;;;;;4977425;28;20585;-77
2023/06/05 02:52:00;;;;;;;6.60;5.50;;;11.60;99.90;;;;;;4962910;28;20255;-81
2023/06/05 02:54:28;;;;;;;6.57;5.33;;;11.60;99.90;;;;;;4971443;28;20251;-82
2023/06/05 02:57:00;;;;;;;7.20;4.90;;;11.60;99.90;;;;;;4971522;28;20747;-81
2023/06/05 02:59:31;;;;;;;6.47;5.47;;;11.70;99.90;;;;;;4977504;28;20249;-81
2023/06/05 03:01:59;;;;;;;6.20;5.07;;;11.60;99.90;;;;;;4975813;28;20193;-81
2023/06/05 03:04:26;;;;;;;6.70;5.30;;;11.60;99.90;;;;;;4978687;28;20251;-83
2023/06/05 03:07:03;;;;;;;5.27;4.60;;;11.60;99.90;;;;;;4980500;28;20204;-83
2023/06/05 03:09:32;;;;;;;6.10;5.17;;;11.60;99.90;;;;;;4983510;28;20224;-82
2023/06/05 03:11:59;;;;;;;9.13;5.03;;;11.50;99.90;;;;;;4969969;28;20208;-82
2023/06/05 03:14:27;;;;;;;9.33;5.83;;;11.50;99.90;;;;;;4976021;28;20210;-81
2023/06/05 03:16:58;;;;;;;7.73;5.80;;;11.40;99.90;;;;;;4980976;28;20291;-81
2023/06/05 03:19:26;;;;;;;6.60;5.60;;;11.40;99.90;;;;;;5003301;28;20714;-73
2023/06/05 03:21:54;;;;;;;7.57;5.97;;;11.40;99.90;;;;;;5008276;28;20196;-78
2023/06/05 03:24:24;;;;;;;7.30;5.50;;;11.30;99.90;;;;;;4986553;28;20578;-78
2023/06/05 03:26:55;;;;;;;8.53;5.90;;;11.20;99.90;;;;;;4986557;28;20228;-80
2023/06/05 03:29:22;;;;;;;9.33;6.20;;;11.20;99.90;;;;;;4972055;28;20220;-77
2023/06/05 03:31:50;;;;;;;8.87;6.03;;;11.20;99.90;;;;;;4984530;28;20670;-77
2023/06/05 03:34:18;;;;;;;6.57;5.77;;;11.20;99.90;;;;;;5009280;28;20586;-77
2023/06/05 03:36:48;;;;;;;7.57;5.97;;;11.20;99.90;;;;;;4993680;28;20206;-78
2023/06/05 03:39:15;;;;;;;8.07;6.40;;;11.10;99.90;;;;;;4997020;28;20254;-78
2023/06/05 03:41:44;;;;;;;8.00;6.30;;;11.20;99.90;;;;;;4994460;28;20440;-79
2023/06/05 03:44:12;;;;;;;10.47;6.40;;;11.10;99.90;;;;;;4984786;28;20204;-80
2023/06/05 03:46:38;;;;;;;7.97;6.33;;;11.20;99.90;;;;;;5008259;28;20290;-79
2023/06/05 03:49:08;;;;;;;7.33;5.87;;;11.10;99.90;;;;;;4991229;28;20234;-80
2023/06/05 03:51:36;;;;;;;6.30;5.30;;;11.20;99.90;;;;;;4981567;28;20290;-78
2023/06/05 03:54:05;;;;;;;8.90;6.20;;;11.30;99.90;;;;;;4975089;28;20219;-78
2023/06/05 03:56:34;;;;;;;7.67;5.80;;;11.30;99.90;;;;;;4995614;28;20257;-78
2023/06/05 03:59:16;;;;;;;7.73;5.77;;;11.20;99.90;;;;;;4978741;28;20224;-77
2023/06/05 04:01:43;;;;;;;6.87;5.60;;;11.30;99.90;;;;;;4989548;28;20263;-77
2023/06/05 04:04:10;;;;;;;7.03;5.63;;;11.30;99.90;;;;;;4985463;28;20303;-76
2023/06/05 04:06:38;;;;;;;10.50;6.50;;;11.30;99.90;;;;;;4986566;28;20818;-76
2023/06/05 04:09:11;;;;;;;10.40;6.47;;;11.40;99.90;;;;;;4984067;28;20321;-76
2023/06/05 04:11:40;;;;;;;9.00;5.67;;;11.50;99.90;;;;;;4987776;28;20208;-76
2023/06/05 04:14:09;;;;;;;8.03;5.73;;;11.50;99.90;;;;;;5005091;28;20200;-75
2023/06/05 04:16:38;;;;;;;6.17;5.20;;;11.50;99.90;;;;;;4981101;28;20303;-75
2023/06/05 04:19:07;;;;;;;7.33;5.53;;;11.60;99.90;;;;;;4986689;28;20269;-76
2023/06/05 04:21:35;;;;;;;8.83;5.67;;;11.70;99.90;;;;;;4994079;28;20200;-76
2023/06/05 04:24:06;;;;;;;6.30;5.07;;;11.70;99.90;;;;;;4988056;28;20217;-76
2023/06/05 04:26:33;;;;;;;8.20;6.00;;;11.80;99.90;;;;;;4986317;28;20671;-76
2023/06/05 04:29:02;;;;;;;6.70;5.30;;;11.90;99.90;;;;;;5004366;28;20224;-76
2023/06/05 04:31:30;;;;;;;6.53;4.90;;;12.00;99.90;;;;;;4976575;28;20258;-76
2023/06/05 04:33:57;;;;;;;5.63;4.70;;;12.10;99.90;;;;;;4980413;28;20200;-76
2023/06/05 04:36:25;;;;;;;7.53;5.43;;;12.20;99.90;;;;;;4962656;28;20685;-76
2023/06/05 04:38:52;;;;;;;7.50;5.57;;;12.40;99.90;;;;;;4979431;28;20226;-76
2023/06/05 04:41:21;;;;;;;7.90;5.00;;;12.50;99.90;;;;;;4988432;28;20198;-75
2023/06/05 04:43:48;;;;;;;6.07;5.33;;;12.60;99.90;;;;;;4986637;28;20203;-76
2023/06/05 04:46:16;;;;;;;6.37;5.17;;;12.70;99.90;;;;;;4987053;28;20291;-76
2023/06/05 04:48:45;;;;;;;6.63;5.27;;;13.00;99.90;;;;;;4988856;28;20260;-76
2023/06/05 04:51:12;;;;;;;6.80;5.60;;;13.80;99.90;;;;;;4993176;28;20642;-75
2023/06/05 04:53:41;;;;;;;7.93;5.30;;;14.50;99.90;;;;;;4990932;28;20192;-75
2023/06/05 04:56:09;;;;;;;8.57;6.00;;;14.90;99.90;;;;;;5012784;28;20202;-75
2023/06/05 04:58:37;;;;;;;5.93;4.97;;;15.30;99.90;;;;;;4989737;28;20210;-75
2023/06/05 05:01:06;;;;;;;9.57;5.90;;;15.30;99.90;;;;;;4987552;28;20287;-75
2023/06/05 05:03:35;;;;;;;7.17;5.37;;;15.20;99.90;;;;;;4986977;28;20744;-75
2023/06/05 05:06:03;;;;;;;6.27;5.20;;;15.10;99.90;;;;;;4984157;28;20279;-75
2023/06/05 05:08:31;;;;;;;6.53;4.93;;;15.00;99.90;;;;;;4992964;28;20213;-75
2023/06/05 05:10:58;;;;;;;6.70;5.10;;;15.00;99.90;;;;;;4981644;28;20681;-75
2023/06/05 05:13:25;;;;;;;7.67;5.67;;;15.00;99.90;;;;;;4989653;28;20201;-75
2023/06/05 05:15:53;;;;;;;8.00;5.30;;;15.00;99.90;;;;;;4977265;28;20668;-75
2023/06/05 05:18:20;;;;;;;7.13;5.60;;;15.20;99.90;;;;;;4988689;28;20204;-75
2023/06/05 05:20:47;;;;;;;7.73;5.37;;;15.40;99.90;;;;;;4981585;28;20270;-75
2023/06/05 05:23:16;;;;;;;7.03;5.53;;;15.60;99.90;;;;;;4988229;28;20259;-75
2023/06/05 05:25:43;;;;;;;6.63;5.37;;;15.70;99.90;;;;;;4988682;28;20227;-75
2023/06/05 05:28:10;;;;;;;7.53;6.03;;;15.60;99.90;;;;;;4989944;28;20218;-75
2023/06/05 05:30:37;;;;;;;7.03;5.93;;;15.60;99.90;;;;;;4994791;28;20307;-75
2023/06/05 05:33:05;;;;;;;6.37;4.73;;;15.70;99.90;;;;;;4992856;28;20304;-75
2023/06/05 05:35:32;;;;;;;5.97;4.80;;;15.70;99.90;;;;;;4980948;28;20649;-75
2023/06/05 05:37:59;;;;;;;5.73;4.77;;;15.80;99.90;;;;;;4992355;28;20208;-75
2023/06/05 05:40:27;;;;;;;7.37;5.07;;;16.10;99.90;;;;;;4983990;28;20651;-75
2023/06/05 05:42:54;;;;;;;5.77;4.93;;;16.40;99.90;;;;;;4980844;28;20216;-75
2023/06/05 05:45:21;;;;;;;5.83;4.43;;;16.80;99.90;;;;;;5009766;28;20281;-76
2023/06/05 05:47:48;;;;;;;5.17;4.40;;;17.50;99.90;;;;;;4987950;28;20282;-76
2023/06/05 05:50:15;;;;;;;6.90;5.13;;;18.10;99.90;;;;;;5004901;28;20240;-75
2023/06/05 05:52:42;;;;;;;6.03;4.67;;;18.70;99.90;;;;;;5008855;28;20276;-76
2023/06/05 05:55:10;;;;;;;6.37;4.50;;;19.30;99.90;;;;;;5006745;28;20213;-76
2023/06/05 05:57:38;;;;;;;6.23;4.93;;;19.70;99.90;;;;;;5008865;28;20193;-75
2023/06/05 06:00:09;;;;;;;6.40;5.03;;;20.20;99.90;;;;;;5009914;28;20217;-75
2023/06/05 06:02:38;;;;;;;5.93;4.77;;;20.60;99.90;;;;;;5008148;28;20196;-76
2023/06/05 06:05:05;;;;;;;6.30;5.07;;;21.00;99.90;;;;;;4979010;28;20255;-75
2023/06/05 06:07:32;;;;;;;4.70;4.00;;;21.30;99.90;;;;;;5004974;28;20205;-76
2023/06/05 06:09:59;;;;;;;5.13;4.17;;;21.80;99.90;;;;;;5009226;28;20362;-76
2023/06/05 06:12:27;;;;;;;5.57;4.00;;;22.00;99.90;;;;;;4995091;28;20209;-75
2023/06/05 06:14:56;;;;;;;5.67;4.13;;;22.20;99.90;;;;;;4986788;28;20299;-75
2023/06/05 06:17:23;;;;;;;5.07;4.37;;;22.30;99.90;;;;;;5008065;28;20672;-76
2023/06/05 06:19:51;;;;;;;5.73;4.70;;;22.40;99.90;;;;;;5009164;28;20213;-76
2023/06/05 06:22:18;;;;;;;5.37;4.43;;;22.40;99.90;;;;;;5011347;28;20200;-75
2023/06/05 06:24:44;;;;;;;7.77;4.60;;;22.40;99.90;;;;;;4983854;28;20651;-75
2023/06/05 06:27:12;;;;;;;6.43;4.40;;;22.20;99.90;;;;;;4979264;28;20799;-76
2023/06/05 06:29:48;;;;;;;5.37;4.37;;;22.30;99.90;;;;;;4994874;28;20235;-76
2023/06/05 06:32:17;;;;;;;4.53;3.83;;;22.60;99.90;;;;;;5008900;28;20208;-76
2023/06/05 06:34:44;;;;;;;5.93;4.27;;;22.80;99.90;;;;;;5008151;28;20207;-76
2023/06/05 06:37:12;;;;;;;5.47;4.47;;;23.00;99.90;;;;;;5007131;28;20197;-76
2023/06/05 06:39:39;;;;;;;5.60;4.50;;;23.20;99.90;;;;;;5010230;28;20581;-76
2023/06/05 06:42:06;;;;;;;5.47;4.10;;;23.40;99.90;;;;;;5008910;28;20192;-76
2023/06/05 06:44:34;;;;;;;6.67;4.43;;;23.40;99.90;;;;;;4980068;28;20255;-76
2023/06/05 06:47:01;;;;;;;5.67;4.30;;;23.20;99.90;;;;;;4997597;28;20196;-77
2023/06/05 06:49:29;;;;;;;5.40;4.00;;;23.10;99.90;;;;;;5003371;28;20220;-76
2023/06/05 06:51:56;;;;;;;5.90;4.00;;;23.40;99.90;;;;;;5005678;28;20224;-76
2023/06/05 06:54:22;;;;;;;6.87;4.53;;;23.40;99.90;;;;;;5001506;28;20202;-76
2023/06/05 06:56:49;;;;;;;6.33;4.33;;;23.40;99.90;;;;;;4983311;28;20209;-76
2023/06/05 06:59:16;;;;;;;5.13;4.50;;;23.60;99.90;;;;;;4986351;28;20217;-76
2023/06/05 07:01:45;;;;;;;5.40;4.20;;;24.00;99.90;;;;;;5010564;28;20197;-76
2023/06/05 07:04:16;;;;;;;4.13;3.60;;;24.30;99.90;;;;;;5001127;28;20695;-76
2023/06/05 07:06:44;;;;;;;6.37;4.33;;;24.40;99.90;;;;;;4984347;28;20675;-76
2023/06/05 07:09:11;;;;;;;5.50;4.20;;;24.30;99.70;;;;;;4981262;28;20228;-76
2023/06/05 07:11:38;;;;;;;6.77;4.27;;;24.00;99.90;;;;;;5004837;28;20197;-76
2023/06/05 07:14:05;;;;;;;5.03;3.87;;;24.50;99.30;;;;;;5007561;28;20259;-76
2023/06/05 07:16:32;;;;;;;5.27;3.90;;;24.70;99.70;;;;;;5002551;28;20729;-76
2023/06/05 07:18:59;;;;;;;6.77;4.40;;;24.90;98.40;;;;;;4993497;28;20265;-76
2023/06/05 07:21:26;;;;;;;5.73;4.37;;;24.90;98.40;;;;;;5003019;28;20630;-76
2023/06/05 07:23:55;;;;;;;6.47;4.73;;;24.80;99.60;;;;;;4998051;28;20662;-76
2023/06/05 07:26:23;;;;;;;6.10;4.37;;;24.60;99.40;;;;;;4995708;28;20205;-76
2023/06/05 07:28:50;;;;;;;5.40;4.13;;;24.90;99.80;;;;;;5003886;28;20216;-76
2023/06/05 07:31:17;;;;;;;6.87;5.17;;;25.40;99.90;;;;;;5005550;28;20204;-76
2023/06/05 07:33:44;;;;;;;5.67;4.10;;;25.40;99.30;;;;;;5005797;28;20214;-76
2023/06/05 07:36:11;;;;;;;6.83;4.77;;;25.30;99.30;;;;;;4996281;28;20206;-76
2023/06/05 07:38:39;;;;;;;5.60;4.13;;;25.40;98.50;;;;;;5007416;28;20185;-76
2023/06/05 07:41:09;;;;;;;4.77;4.27;;;25.20;98.90;;;;;;4980913;28;20205;-76
2023/06/05 07:43:36;;;;;;;7.57;4.93;;;25.30;96.90;;;;;;5003701;28;20271;-76
2023/06/05 07:46:04;;;;;;;4.67;3.80;;;24.80;95.10;;;;;;5000392;28;20680;-76
2023/06/05 07:48:31;;;;;;;7.47;4.53;;;24.80;96.50;;;;;;5006420;28;20280;-77
2023/06/05 07:50:58;;;;;;;4.87;4.30;;;24.90;97.30;;;;;;5007653;28;20667;-76
2023/06/05 07:53:25;;;;;;;6.00;4.43;;;25.00;97.90;;;;;;5004786;28;20197;-76
2023/06/05 07:55:51;;;;;;;5.90;4.50;;;24.70;97.10;;;;;;5004907;28;20196;-76
2023/06/05 07:58:20;;;;;;;8.20;4.47;;;25.00;96.70;;;;;;4991086;28;20200;-75
2023/06/05 08:00:48;;;;;;;5.57;4.20;;;25.10;96.80;;;;;;5007017;28;20208;-76
2023/06/05 08:03:20;;;;;;;5.70;3.80;;;24.90;97.80;;;;;;5005033;28;20363;-76
2023/06/05 08:05:47;;;;;;;6.30;3.50;;;24.90;97.10;;;;;;4987374;28;20201;-76
2023/06/05 08:08:14;;;;;;;6.20;4.50;;;24.90;98.40;;;;;;4985821;28;20669;-76
2023/06/05 08:10:41;;;;;;;5.30;3.90;;;24.80;98.20;;;;;;5007205;28;20221;-76
2023/06/05 08:13:09;;;;;;;5.17;4.00;;;25.00;99.30;;;;;;5003783;28;20628;-76
2023/06/05 08:15:37;;;;;;;4.47;3.70;;;25.10;98.20;;;;;;4993409;28;20207;-75
2023/06/05 08:18:04;;;;;;;5.53;4.13;;;25.20;98.90;;;;;;5007181;28;20279;-76
2023/06/05 08:20:31;;;;;;;4.93;4.10;;;25.10;97.50;;;;;;5004821;28;20216;-76
2023/06/05 08:22:58;;;;;;;6.73;4.13;;;25.20;98.20;;;;;;5003568;28;20722;-76
2023/06/05 08:25:25;;;;;;;5.07;3.70;;;25.60;96.60;;;;;;4979537;28;20204;-76
2023/06/05 08:27:51;;;;;;;5.97;4.10;;;25.50;97.00;;;;;;5006947;28;20196;-76
2023/06/05 08:30:18;;;;;;;5.00;3.63;;;25.40;99.10;;;;;;4987893;28;20257;-76
2023/06/05 08:32:47;;;;;;;4.67;3.70;;;25.90;97.50;;;;;;4999218;28;20706;-76
2023/06/05 08:35:13;;;;;;;7.33;4.13;;;26.20;98.30;;;;;;4986594;28;20201;-76
2023/06/05 08:37:41;;;;;;;4.03;3.63;;;26.40;96.40;;;;;;4991438;28;20216;-76
2023/06/05 08:40:10;;;;;;;5.70;3.87;;;26.30;97.60;;;;;;4995127;28;20592;-76
2023/06/05 08:42:38;;;;;;;6.97;4.60;;;26.50;96.50;;;;;;4980079;28;20196;-76
2023/06/05 08:45:07;;;;;;;6.37;4.30;;;26.00;97.30;;;;;;5009005;28;20235;-76
2023/06/05 08:47:37;;;;;;;6.73;4.47;;;26.20;98.30;;;;;;4982888;28;20754;-76
2023/06/05 08:50:08;;;;;;;4.67;4.10;;;26.80;96.60;;;;;;4982609;28;20225;-77
2023/06/05 08:52:37;;;;;;;5.87;4.40;;;26.40;97.30;;;;;;5005869;28;20224;-77
2023/06/05 08:55:05;;;;;;;6.60;4.23;;;26.50;97.50;;;;;;5003628;28;20200;-77
2023/06/05 08:57:32;;;;;;;4.50;4.07;;;26.80;98.40;;;;;;5008284;28;20679;-77
2023/06/05 09:00:01;;;;;;;5.40;3.87;;;27.20;98.20;;;;;;5008862;28;20687;-77
2023/06/05 09:02:29;;;;;;;6.90;5.33;;;27.40;98.30;;;;;;5006858;28;20267;-77
2023/06/05 09:04:57;;;;;;;6.50;5.90;;;27.70;98.40;;;;;;4986217;28;20655;-77
2023/06/05 09:07:27;;;;;;;5.97;5.47;;;27.20;98.40;;;;;;5008125;28;20250;-76
2023/06/05 09:09:54;;;;;;;6.33;5.50;;;27.70;99.40;;;;;;5005024;28;20221;-76
2023/06/05 09:12:20;;;;;;;6.13;5.60;;;27.90;98.20;;;;;;4993378;28;20288;-77
2023/06/05 09:14:47;;;;;;;7.10;6.13;;;28.10;97.80;;;;;;4998317;28;20251;-76
2023/06/05 09:17:16;;;;;;;8.17;6.53;;;27.90;97.40;;;;;;4983376;28;20645;-77
2023/06/05 09:19:45;;;;;;;6.23;5.40;;;27.80;98.20;;;;;;5008683;28;20212;-77
2023/06/05 09:22:14;;;;;;;7.60;5.13;;;27.80;97.70;;;;;;4998154;28;20208;-76
2023/06/05 09:24:43;;;;;;;8.80;6.13;;;28.00;98.30;;;;;;5012144;28;20224;-78
2023/06/05 09:27:12;;;;;;;5.43;4.47;;;27.50;98.50;;;;;;4976292;28;20205;-77
2023/06/05 09:29:40;;;;;;;8.47;6.43;;;27.20;97.80;;;;;;4993129;28;20216;-77
2023/06/05 09:32:08;;;;;;;7.10;6.43;;;27.00;99.90;;;;;;5011381;28;20745;-76
2023/06/05 09:34:36;;;;;;;8.97;6.70;;;27.00;97.90;;;;;;4995157;28;20212;-77
2023/06/05 09:37:05;;;;;;;8.40;7.60;;;27.20;99.90;;;;;;4979103;28;20618;-76
2023/06/05 09:39:34;;;;;;;6.23;5.67;;;26.90;97.90;;;;;;4988041;28;20277;-77
2023/06/05 09:42:03;;;;;;;7.60;4.67;;;26.80;99.50;;;;;;4978476;28;20197;-76
2023/06/05 09:44:31;;;;;;;6.60;4.67;;;27.10;99.80;;;;;;4995194;28;20268;-76
2023/06/05 09:47:00;;;;;;;6.87;5.60;;;27.30;99.60;;;;;;4977830;28;20193;-76
2023/06/05 09:49:29;;;;;;;12.47;7.67;;;26.80;98.70;;;;;;4985557;28;20311;-76
2023/06/05 09:51:58;;;;;;;7.67;6.73;;;26.30;99.60;;;;;;4978300;28;20201;-76
2023/06/05 09:54:27;;;;;;;9.63;7.67;;;26.50;99.40;;;;;;4999034;28;20209;-77
2023/06/05 09:56:58;;;;;;;7.77;6.97;;;26.50;98.70;;;;;;4987843;28;20266;-76
2023/06/05 09:59:31;;;;;;;6.87;6.27;;;26.50;99.90;;;;;;4992379;28;20736;-76
2023/06/05 10:02:00;;;;;;;7.20;6.60;;;26.60;98.90;;;;;;4973142;28;20204;-76
2023/06/05 10:04:29;;;;;;;7.17;5.07;;;26.60;98.60;;;;;;4973988;28;20214;-80
2023/06/05 10:07:01;;;;;;;7.57;5.03;;;26.60;99.40;;;;;;4998475;28;20248;-78
2023/06/05 10:09:31;;;;;;;6.33;5.00;;;26.60;99.90;;;;;;4999437;28;20220;-78
2023/06/05 10:11:59;;;;;;;6.17;4.30;;;26.90;98.60;;;;;;4981015;28;20212;-77
2023/06/05 10:14:27;;;;;;;5.43;4.17;;;26.80;98.80;;;;;;4998648;28;20595;-78
2023/06/05 10:16:56;;;;;;;6.90;4.67;;;26.40;98.00;;;;;;4997626;28;20189;-81
2023/06/05 10:19:24;;;;;;;4.60;3.93;;;26.30;98.80;;;;;;4997612;28;20217;-77
2023/06/05 10:21:51;;;;;;;7.80;4.57;;;26.30;98.50;;;;;;4992439;28;20193;-77
2023/06/05 10:24:22;;;;;;;8.67;7.40;;;26.30;97.00;;;;;;4997652;28;20255;-77
2023/06/05 10:27:14;;;;;;;8.03;7.20;;;26.40;95.40;;;;;;4994724;28;20201;-77
2023/06/05 10:30:02;;;;;;;6.50;4.07;;;26.60;96.80;;;;;;4962441;28;20272;-77
2023/06/05 10:32:42;;;;;;;6.67;4.70;;;26.50;96.70;;;;;;4960707;28;20205;-76
2023/06/05 10:35:20;;;;;;;5.57;4.10;;;26.40;96.20;;;;;;4993296;28;20205;-78
2023/06/05 10:38:04;;;;;;;6.17;4.60;;;26.20;97.80;;;;;;4987651;28;20684;-77
2023/06/05 10:40:32;;;;;;;8.07;5.10;;;26.70;96.20;;;;;;4999343;28;20711;-77
2023/06/05 10:43:26;;;;;;;6.10;4.80;;;26.30;96.20;;;;;;5003277;28;20201;-78
2023/06/05 10:45:55;;;;;;;6.13;4.80;;;26.50;96.20;;;;;;4985957;28;20200;-77
2023/06/05 10:48:22;;;;;;;6.97;4.67;;;26.90;96.70;;;;;;4974642;28;20717;-77
2023/06/05 10:50:49;;;;;;;7.43;4.70;;;27.20;97.00;;;;;;4992838;28;20279;-77
2023/06/05 10:53:46;;;;;;;5.80;5.20;;;27.40;95.10;;;;;;4989620;28;20297;-77
2023/06/05 10:56:46;;;;;;;7.83;7.13;;;27.10;96.10;;;;;;5004475;28;20193;-79
2023/06/05 10:59:14;;;;;;;7.57;6.70;;;27.30;96.40;;;;;;4991082;28;20255;-77
2023/06/05 11:01:42;;;;;;;7.80;7.03;;;27.10;95.40;;;;;;5003781;28;20197;-77
2023/06/05 11:04:09;;;;;;;7.30;5.83;;;26.80;95.20;;;;;;4980894;28;20683;-78
2023/06/05 11:06:37;;;;;;;6.13;4.63;;;27.00;94.30;;;;;;4979002;28;20296;-77
2023/06/05 11:09:12;;;;;;;6.63;4.90;;;26.90;95.20;;;;;;4986599;28;20260;-76
2023/06/05 11:11:59;;;;;;;7.93;4.57;;;26.70;95.40;;;;;;4985554;28;20232;-78
2023/06/05 11:14:44;;;;;;;7.07;6.47;;;26.50;95.00;;;;;;4977526;28;20576;-77
2023/06/05 11:17:29;;;;;;;6.37;4.40;;;26.40;94.80;;;;;;5002701;28;20196;-78
2023/06/05 11:19:56;;;;;;;6.63;5.13;;;26.40;95.00;;;;;;4993096;28;20212;-77
2023/06/05 11:22:23;;;;;;;6.17;5.57;;;25.90;94.90;;;;;;5012245;28;20209;-77
2023/06/05 11:25:29;;;;;;;6.77;6.10;;;25.80;95.20;;;;;;5009146;28;20250;-77
2023/06/05 11:27:58;;;;;;;7.10;6.40;;;26.00;94.90;;;;;;4988366;28;20687;-76
2023/06/05 11:30:29;;;;;;;6.30;5.67;;;26.20;94.40;;;;;;4997814;28;20225;-77
2023/06/05 11:32:58;;;;;;;5.83;5.33;;;26.30;94.90;;;;;;5001557;28;20217;-78
2023/06/05 11:35:27;;;;;;;11.73;6.70;;;26.70;94.00;;;;;;5005815;28;20198;-78
2023/06/05 11:38:09;;;;;;;7.30;6.70;;;26.60;94.00;;;;;;5011215;28;20195;-77
2023/06/05 11:40:36;;;;;;;8.17;7.10;;;26.10;94.40;;;;;;4991345;28;20212;-77
2023/06/05 11:43:05;;;;;;;6.23;4.57;;;25.80;93.50;;;;;;5010519;28;20259;-78
2023/06/05 11:45:33;;;;;;;5.57;4.27;;;25.80;94.30;;;;;;5007770;28;20197;-76
2023/06/05 11:48:11;;;;;;;6.07;5.00;;;26.00;94.00;;;;;;5010259;28;20192;-78
2023/06/05 11:50:39;;;;;;;6.30;5.23;;;26.00;93.00;;;;;;4995741;28;20228;-77
2023/06/05 11:53:07;;;;;;;6.17;5.30;;;26.00;93.40;;;;;;4998424;28;20225;-77
2023/06/05 11:55:43;;;;;;;6.70;5.93;;;26.00;93.00;;;;;;5000351;28;20219;-77
2023/06/05 11:58:11;;;;;;;8.03;5.20;;;26.00;93.40;;;;;;4985731;28;20214;-78
2023/06/05 12:00:37;;;;;;;6.00;4.53;;;26.10;94.00;;;;;;4994090;28;20217;-77
2023/06/05 12:03:04;;;;;;;6.87;4.43;;;26.00;92.90;;;;;;4985698;28;20202;-77
2023/06/05 12:05:32;;;;;;;6.20;5.07;;;26.00;93.80;;;;;;5011734;28;20192;-77
2023/06/05 12:08:21;;;;;;;6.10;5.57;;;26.00;93.80;;;;;;4990344;28;20287;-77
2023/06/05 12:10:48;;;;;;;8.07;4.53;;;26.00;94.20;;;;;;4989759;28;20224;-77
2023/06/05 12:13:15;;;;;;;7.33;4.80;;;26.20;93.90;;;;;;5012112;28;20204;-77
2023/06/05 12:15:42;;;;;;;6.83;5.50;;;25.90;93.40;;;;;;4978784;28;20197;-77
2023/06/05 12:18:09;;;;;;;4.53;3.97;;;25.60;93.90;;;;;;5004990;28;20196;-77
2023/06/05 12:20:40;;;;;;;4.57;4.17;;;25.30;94.60;;;;;;4974777;28;20209;-77
2023/06/05 12:23:07;;;;;;;7.37;5.23;;;25.30;95.40;;;;;;4982051;28;20277;-77
2023/06/05 12:25:34;;;;;;;5.53;4.40;;;25.50;93.60;;;;;;5002225;28;20672;-77
2023/06/05 12:28:01;;;;;;;5.90;4.97;;;25.60;93.50;;;;;;4998525;28;20197;-77
2023/06/05 12:30:40;;;;;;;7.50;4.40;;;25.90;93.70;;;;;;4981142;28;20227;-77
2023/06/05 12:33:08;;;;;;;6.50;4.63;;;26.10;94.10;;;;;;4997890;28;20212;-77
2023/06/05 12:35:35;;;;;;;8.77;5.23;;;26.10;92.90;;;;;;4995279;28;20616;-77
2023/06/05 12:38:03;;;;;;;4.63;4.13;;;25.90;92.80;;;;;;5001356;28;20208;-77
2023/06/05 12:40:30;;;;;;;7.20;4.93;;;25.80;92.60;;;;;;4998815;28;20205;-78
2023/06/05 12:42:57;;;;;;;5.97;5.00;;;25.80;92.30;;;;;;5001919;28;20266;-77
2023/06/05 12:45:24;;;;;;;5.57;4.60;;;25.60;93.70;;;;;;5008544;28;20266;-76
2023/06/05 12:47:51;;;;;;;6.50;4.87;;;25.60;93.20;;;;;;4990256;28;20201;-77
2023/06/05 12:50:19;;;;;;;5.97;4.47;;;25.80;94.00;;;;;;4992153;28;20232;-78
2023/06/05 12:52:45;;;;;;;5.50;4.23;;;25.90;93.90;;;;;;5012040;28;20647;-77
2023/06/05 12:55:14;;;;;;;6.07;5.03;;;25.90;92.00;;;;;;4991089;28;20256;-77